sensor_id;sensor_type;location;lat;lon;timestamp;P1;durP1;ratioP1;P2;durP2;ratioP2
66542;SDS011;53395;37.360;-122.046;2023-06-22T00:01:16;9.40;;;1.85;;
66542;SDS011;53395;37.360;-122.046;2023-06-22T00:04:00;8.85;;;1.80;;
66542;SDS011;53395;37.360;-122.046;2023-06-22T00:06:45;6.05;;;1.55;;
66542;SDS011;53395;37.360;-122.046;2023-06-22T00:09:30;7.53;;;1.83;;
66542;SDS011;53395;37.360;-122.046;2023-06-22T00:12:14;10.52;;;2.08;;
66542;SDS011;53395;37.360;-122.046;2023-06-22T00:14:59;9.90;;;2.00;;
66542;SDS011;53395;37.360;-122.046;2023-06-22T00:17:43;9.93;;;2.20;;
66542;SDS011;53395;37.360;-122.046;2023-06-22T00:20:28;7.07;;;1.55;;
66542;SDS011;53395;37.360;-122.046;2023-06-22T00:23:12;7.70;;;1.10;;
66542;SDS011;53395;37.360;-122.046;2023-06-22T00:25:59;7.65;;;1.55;;
66542;SDS011;53395;37.360;-122.046;2023-06-22T00:28:44;8.18;;;1.20;;
66542;SDS011;53395;37.360;-122.046;2023-06-22T00:31:28;9.20;;;1.80;;
66542;SDS011;53395;37.360;-122.046;2023-06-22T00:34:13;8.48;;;1.80;;
66542;SDS011;53395;37.360;-122.046;2023-06-22T00:36:57;8.93;;;1.75;;
66542;SDS011;53395;37.360;-122.046;2023-06-22T00:39:43;9.98;;;1.98;;
66542;SDS011;53395;37.360;-122.046;2023-06-22T00:42:28;8.77;;;1.60;;
66542;SDS011;53395;37.360;-122.046;2023-06-22T00:45:12;7.68;;;1.50;;
66542;SDS011;53395;37.360;-122.046;2023-06-22T00:47:57;7.13;;;1.73;;
66542;SDS011;53395;37.360;-122.046;2023-06-22T00:50:41;6.72;;;1.40;;
66542;SDS011;53395;37.360;-122.046;2023-06-22T00:53:26;6.05;;;1.15;;
66542;SDS011;53395;37.360;-122.046;2023-06-22T00:56:11;9.57;;;1.40;;
66542;SDS011;53395;37.360;-122.046;2023-06-22T00:58:56;10.40;;;1.42;;
66542;SDS011;53395;37.360;-122.046;2023-06-22T01:01:42;9.32;;;2.15;;
66542;SDS011;53395;37.360;-122.046;2023-06-22T01:04:34;6.50;;;1.35;;
66542;SDS011;53395;37.360;-122.046;2023-06-22T01:07:39;6.95;;;1.60;;
66542;SDS011;53395;37.360;-122.046;2023-06-22T01:13:24;7.72;;;1.60;;
66542;SDS011;53395;37.360;-122.046;2023-06-22T01:19:50;6.60;;;1.42;;
66542;SDS011;53395;37.360;-122.046;2023-06-22T01:22:57;6.70;;;1.55;;
66542;SDS011;53395;37.360;-122.046;2023-06-22T01:26:05;7.75;;;1.70;;
66542;SDS011;53395;37.360;-122.046;2023-06-22T01:28:49;7.15;;;1.70;;
66542;SDS011;53395;37.360;-122.046;2023-06-22T01:31:34;7.43;;;1.48;;
66542;SDS011;53395;37.360;-122.046;2023-06-22T01:34:19;6.30;;;1.52;;
66542;SDS011;53395;37.360;-122.046;2023-06-22T01:37:04;6.25;;;1.45;;
66542;SDS011;53395;37.360;-122.046;2023-06-22T01:39:48;9.95;;;1.70;;
66542;SDS011;53395;37.360;-122.046;2023-06-22T01:42:33;8.48;;;1.58;;
66542;SDS011;53395;37.360;-122.046;2023-06-22T01:45:18;8.98;;;1.80;;
66542;SDS011;53395;37.360;-122.046;2023-06-22T01:48:03;9.95;;;2.28;;
66542;SDS011;53395;37.360;-122.046;2023-06-22T01:50:47;11.57;;;1.65;;
66542;SDS011;53395;37.360;-122.046;2023-06-22T01:53:32;6.30;;;1.65;;
66542;SDS011;53395;37.360;-122.046;2023-06-22T01:56:17;7.80;;;1.70;;
66542;SDS011;53395;37.360;-122.046;2023-06-22T01:59:04;9.02;;;1.75;;
66542;SDS011;53395;37.360;-122.046;2023-06-22T02:02:01;6.63;;;1.85;;
66542;SDS011;53395;37.360;-122.046;2023-06-22T02:05:19;11.95;;;1.83;;
66542;SDS011;53395;37.360;-122.046;2023-06-22T02:08:00;10.63;;;1.60;;
66542;SDS011;53395;37.360;-122.046;2023-06-22T02:10:46;7.72;;;1.65;;
66542;SDS011;53395;37.360;-122.046;2023-06-22T02:13:32;7.70;;;1.80;;
66542;SDS011;53395;37.360;-122.046;2023-06-22T02:16:17;5.72;;;1.70;;
66542;SDS011;53395;37.360;-122.046;2023-06-22T02:19:02;6.35;;;1.63;;
66542;SDS011;53395;37.360;-122.046;2023-06-22T02:21:47;7.75;;;1.75;;
66542;SDS011;53395;37.360;-122.046;2023-06-22T02:24:31;8.95;;;2.08;;
66542;SDS011;53395;37.360;-122.046;2023-06-22T02:27:17;10.68;;;1.90;;
66542;SDS011;53395;37.360;-122.046;2023-06-22T02:30:01;10.63;;;1.65;;
66542;SDS011;53395;37.360;-122.046;2023-06-22T02:32:46;10.52;;;1.85;;
66542;SDS011;53395;37.360;-122.046;2023-06-22T02:35:31;12.05;;;1.80;;
66542;SDS011;53395;37.360;-122.046;2023-06-22T02:38:15;10.18;;;2.08;;
66542;SDS011;53395;37.360;-122.046;2023-06-22T02:41:01;8.77;;;1.77;;
66542;SDS011;53395;37.360;-122.046;2023-06-22T02:43:46;7.40;;;1.80;;
66542;SDS011;53395;37.360;-122.046;2023-06-22T02:46:30;8.63;;;1.83;;
66542;SDS011;53395;37.360;-122.046;2023-06-22T02:49:15;9.00;;;1.65;;
66542;SDS011;53395;37.360;-122.046;2023-06-22T02:51:59;10.85;;;2.40;;
66542;SDS011;53395;37.360;-122.046;2023-06-22T02:54:44;11.68;;;1.85;;
66542;SDS011;53395;37.360;-122.046;2023-06-22T02:57:31;5.97;;;1.67;;
66542;SDS011;53395;37.360;-122.046;2023-06-22T03:00:15;11.88;;;2.40;;
66542;SDS011;53395;37.360;-122.046;2023-06-22T03:03:03;9.35;;;1.95;;
66542;SDS011;53395;37.360;-122.046;2023-06-22T03:05:47;9.48;;;1.75;;
66542;SDS011;53395;37.360;-122.046;2023-06-22T03:08:32;8.18;;;1.83;;
66542;SDS011;53395;37.360;-122.046;2023-06-22T03:11:16;10.23;;;1.55;;
66542;SDS011;53395;37.360;-122.046;2023-06-22T03:14:01;8.27;;;1.75;;
66542;SDS011;53395;37.360;-122.046;2023-06-22T03:16:46;8.80;;;1.90;;
66542;SDS011;53395;37.360;-122.046;2023-06-22T03:19:30;7.53;;;1.83;;
66542;SDS011;53395;37.360;-122.046;2023-06-22T03:22:15;11.13;;;2.00;;
66542;SDS011;53395;37.360;-122.046;2023-06-22T03:25:00;11.48;;;1.73;;
66542;SDS011;53395;37.360;-122.046;2023-06-22T03:27:44;9.77;;;1.90;;
66542;SDS011;53395;37.360;-122.046;2023-06-22T03:30:29;10.38;;;1.92;;
66542;SDS011;53395;37.360;-122.046;2023-06-22T03:33:13;9.45;;;2.17;;
66542;SDS011;53395;37.360;-122.046;2023-06-22T03:35:58;8.73;;;2.28;;
66542;SDS011;53395;37.360;-122.046;2023-06-22T03:38:42;10.15;;;1.83;;
66542;SDS011;53395;37.360;-122.046;2023-06-22T03:41:27;11.43;;;2.25;;
66542;SDS011;53395;37.360;-122.046;2023-06-22T03:44:12;8.57;;;2.03;;
66542;SDS011;53395;37.360;-122.046;2023-06-22T03:46:56;9.38;;;1.83;;
66542;SDS011;53395;37.360;-122.046;2023-06-22T03:49:40;8.63;;;2.13;;
66542;SDS011;53395;37.360;-122.046;2023-06-22T03:52:25;9.00;;;1.98;;
66542;SDS011;53395;37.360;-122.046;2023-06-22T03:55:09;11.18;;;2.28;;
66542;SDS011;53395;37.360;-122.046;2023-06-22T03:57:54;9.90;;;2.13;;
66542;SDS011;53395;37.360;-122.046;2023-06-22T04:00:40;14.20;;;1.98;;
66542;SDS011;53395;37.360;-122.046;2023-06-22T04:03:25;4.65;;;1.92;;
66542;SDS011;53395;37.360;-122.046;2023-06-22T04:06:09;10.30;;;2.58;;
66542;SDS011;53395;37.360;-122.046;2023-06-22T04:08:54;8.07;;;1.58;;
66542;SDS011;53395;37.360;-122.046;2023-06-22T04:11:38;8.20;;;1.67;;
66542;SDS011;53395;37.360;-122.046;2023-06-22T04:14:23;8.95;;;2.30;;
66542;SDS011;53395;37.360;-122.046;2023-06-22T04:17:07;10.57;;;1.95;;
66542;SDS011;53395;37.360;-122.046;2023-06-22T04:19:52;7.28;;;1.67;;
66542;SDS011;53395;37.360;-122.046;2023-06-22T04:22:36;8.27;;;1.92;;
66542;SDS011;53395;37.360;-122.046;2023-06-22T04:25:20;6.57;;;2.13;;
66542;SDS011;53395;37.360;-122.046;2023-06-22T04:28:05;9.07;;;2.00;;
66542;SDS011;53395;37.360;-122.046;2023-06-22T04:30:50;11.02;;;2.25;;
66542;SDS011;53395;37.360;-122.046;2023-06-22T04:33:35;11.85;;;2.03;;
66542;SDS011;53395;37.360;-122.046;2023-06-22T04:36:19;7.03;;;2.35;;
66542;SDS011;53395;37.360;-122.046;2023-06-22T04:39:05;7.43;;;1.85;;
66542;SDS011;53395;37.360;-122.046;2023-06-22T04:41:50;3.97;;;1.63;;
66542;SDS011;53395;37.360;-122.046;2023-06-22T04:44:35;12.88;;;1.85;;
66542;SDS011;53395;37.360;-122.046;2023-06-22T04:47:19;7.57;;;2.03;;
66542;SDS011;53395;37.360;-122.046;2023-06-22T04:50:04;8.77;;;2.28;;
66542;SDS011;53395;37.360;-122.046;2023-06-22T04:52:50;10.25;;;2.38;;
66542;SDS011;53395;37.360;-122.046;2023-06-22T04:55:34;8.52;;;2.20;;
66542;SDS011;53395;37.360;-122.046;2023-06-22T04:58:21;9.50;;;2.38;;
66542;SDS011;53395;37.360;-122.046;2023-06-22T05:01:06;11.15;;;2.40;;
66542;SDS011;53395;37.360;-122.046;2023-06-22T05:03:52;12.45;;;2.40;;
66542;SDS011;53395;37.360;-122.046;2023-06-22T05:06:40;12.98;;;2.20;;
66542;SDS011;53395;37.360;-122.046;2023-06-22T05:09:25;7.70;;;1.48;;
66542;SDS011;53395;37.360;-122.046;2023-06-22T05:12:09;6.93;;;1.65;;
66542;SDS011;53395;37.360;-122.046;2023-06-22T05:14:55;8.38;;;2.10;;
66542;SDS011;53395;37.360;-122.046;2023-06-22T05:17:40;8.77;;;2.15;;
66542;SDS011;53395;37.360;-122.046;2023-06-22T05:20:26;7.43;;;2.45;;
66542;SDS011;53395;37.360;-122.046;2023-06-22T05:23:11;9.07;;;2.00;;
66542;SDS011;53395;37.360;-122.046;2023-06-22T05:25:55;11.10;;;2.28;;
66542;SDS011;53395;37.360;-122.046;2023-06-22T05:28:41;12.27;;;3.03;;
66542;SDS011;53395;37.360;-122.046;2023-06-22T05:31:29;9.30;;;2.60;;
66542;SDS011;53395;37.360;-122.046;2023-06-22T05:34:13;12.45;;;2.90;;
66542;SDS011;53395;37.360;-122.046;2023-06-22T05:36:58;10.07;;;2.25;;
66542;SDS011;53395;37.360;-122.046;2023-06-22T05:39:45;10.07;;;2.25;;
66542;SDS011;53395;37.360;-122.046;2023-06-22T05:42:29;7.97;;;2.47;;
66542;SDS011;53395;37.360;-122.046;2023-06-22T05:45:14;9.38;;;2.40;;
66542;SDS011;53395;37.360;-122.046;2023-06-22T05:47:58;11.55;;;2.42;;
66542;SDS011;53395;37.360;-122.046;2023-06-22T05:50:43;11.60;;;2.85;;
66542;SDS011;53395;37.360;-122.046;2023-06-22T05:53:27;6.93;;;1.98;;
66542;SDS011;53395;37.360;-122.046;2023-06-22T05:56:12;9.90;;;2.58;;
66542;SDS011;53395;37.360;-122.046;2023-06-22T05:58:56;11.32;;;2.08;;
66542;SDS011;53395;37.360;-122.046;2023-06-22T06:01:41;9.50;;;2.83;;
66542;SDS011;53395;37.360;-122.046;2023-06-22T06:04:25;15.45;;;2.20;;
66542;SDS011;53395;37.360;-122.046;2023-06-22T06:07:10;6.80;;;1.92;;
66542;SDS011;53395;37.360;-122.046;2023-06-22T06:09:54;11.68;;;2.42;;
66542;SDS011;53395;37.360;-122.046;2023-06-22T06:12:39;12.02;;;2.10;;
66542;SDS011;53395;37.360;-122.046;2023-06-22T06:15:23;11.15;;;2.00;;
66542;SDS011;53395;37.360;-122.046;2023-06-22T06:18:07;8.52;;;1.95;;
66542;SDS011;53395;37.360;-122.046;2023-06-22T06:20:52;11.55;;;2.65;;
66542;SDS011;53395;37.360;-122.046;2023-06-22T06:23:36;7.13;;;2.10;;
66542;SDS011;53395;37.360;-122.046;2023-06-22T06:26:21;5.13;;;1.60;;
66542;SDS011;53395;37.360;-122.046;2023-06-22T06:29:11;10.30;;;2.25;;
66542;SDS011;53395;37.360;-122.046;2023-06-22T06:31:56;7.60;;;1.77;;
66542;SDS011;53395;37.360;-122.046;2023-06-22T06:34:40;8.02;;;1.88;;
66542;SDS011;53395;37.360;-122.046;2023-06-22T06:37:25;8.13;;;2.13;;
66542;SDS011;53395;37.360;-122.046;2023-06-22T06:40:10;10.15;;;2.17;;
66542;SDS011;53395;37.360;-122.046;2023-06-22T06:45:39;11.85;;;2.20;;
66542;SDS011;53395;37.360;-122.046;2023-06-22T06:48:23;6.70;;;1.88;;
66542;SDS011;53395;37.360;-122.046;2023-06-22T06:51:08;7.25;;;1.88;;
66542;SDS011;53395;37.360;-122.046;2023-06-22T06:53:53;7.28;;;2.03;;
66542;SDS011;53395;37.360;-122.046;2023-06-22T06:56:37;9.00;;;2.03;;
66542;SDS011;53395;37.360;-122.046;2023-06-22T06:59:22;5.95;;;1.98;;
66542;SDS011;53395;37.360;-122.046;2023-06-22T07:02:06;8.57;;;2.22;;
66542;SDS011;53395;37.360;-122.046;2023-06-22T07:04:51;11.75;;;2.42;;
66542;SDS011;53395;37.360;-122.046;2023-06-22T07:07:36;14.35;;;2.58;;
66542;SDS011;53395;37.360;-122.046;2023-06-22T07:10:20;7.70;;;2.53;;
66542;SDS011;53395;37.360;-122.046;2023-06-22T07:13:05;17.50;;;2.80;;
66542;SDS011;53395;37.360;-122.046;2023-06-22T07:15:50;14.75;;;2.67;;
66542;SDS011;53395;37.360;-122.046;2023-06-22T07:18:34;9.48;;;2.50;;
66542;SDS011;53395;37.360;-122.046;2023-06-22T07:21:19;11.48;;;2.72;;
66542;SDS011;53395;37.360;-122.046;2023-06-22T07:24:04;8.35;;;2.45;;
66542;SDS011;53395;37.360;-122.046;2023-06-22T07:26:49;13.75;;;2.33;;
66542;SDS011;53395;37.360;-122.046;2023-06-22T07:29:34;8.10;;;2.72;;
66542;SDS011;53395;37.360;-122.046;2023-06-22T07:32:19;8.68;;;2.33;;
66542;SDS011;53395;37.360;-122.046;2023-06-22T07:35:04;11.55;;;2.95;;
66542;SDS011;53395;37.360;-122.046;2023-06-22T07:37:49;11.52;;;2.65;;
66542;SDS011;53395;37.360;-122.046;2023-06-22T07:40:33;7.97;;;2.22;;
66542;SDS011;53395;37.360;-122.046;2023-06-22T07:43:19;12.40;;;2.60;;
66542;SDS011;53395;37.360;-122.046;2023-06-22T07:46:03;12.35;;;2.95;;
66542;SDS011;53395;37.360;-122.046;2023-06-22T07:48:48;10.70;;;2.67;;
66542;SDS011;53395;37.360;-122.046;2023-06-22T07:51:32;12.93;;;2.70;;
66542;SDS011;53395;37.360;-122.046;2023-06-22T07:54:17;13.43;;;3.20;;
66542;SDS011;53395;37.360;-122.046;2023-06-22T07:57:01;11.30;;;3.17;;
66542;SDS011;53395;37.360;-122.046;2023-06-22T07:59:46;9.80;;;3.17;;
66542;SDS011;53395;37.360;-122.046;2023-06-22T08:02:30;10.27;;;2.90;;
66542;SDS011;53395;37.360;-122.046;2023-06-22T08:05:15;12.13;;;3.30;;
66542;SDS011;53395;37.360;-122.046;2023-06-22T08:07:59;8.90;;;2.70;;
66542;SDS011;53395;37.360;-122.046;2023-06-22T08:10:43;14.30;;;3.60;;
66542;SDS011;53395;37.360;-122.046;2023-06-22T08:13:28;10.27;;;3.25;;
66542;SDS011;53395;37.360;-122.046;2023-06-22T08:16:13;10.52;;;3.33;;
66542;SDS011;53395;37.360;-122.046;2023-06-22T08:18:57;11.07;;;3.58;;
66542;SDS011;53395;37.360;-122.046;2023-06-22T08:21:42;11.93;;;3.50;;
66542;SDS011;53395;37.360;-122.046;2023-06-22T08:24:26;11.45;;;2.92;;
66542;SDS011;53395;37.360;-122.046;2023-06-22T08:27:14;9.95;;;2.60;;
66542;SDS011;53395;37.360;-122.046;2023-06-22T08:30:02;11.45;;;3.00;;
66542;SDS011;53395;37.360;-122.046;2023-06-22T08:32:47;11.02;;;3.53;;
66542;SDS011;53395;37.360;-122.046;2023-06-22T08:35:32;11.93;;;3.47;;
66542;SDS011;53395;37.360;-122.046;2023-06-22T08:38:16;11.40;;;3.75;;
66542;SDS011;53395;37.360;-122.046;2023-06-22T08:41:02;11.65;;;3.15;;
66542;SDS011;53395;37.360;-122.046;2023-06-22T08:43:47;17.23;;;3.53;;
66542;SDS011;53395;37.360;-122.046;2023-06-22T08:46:31;17.40;;;3.83;;
66542;SDS011;53395;37.360;-122.046;2023-06-22T08:49:17;10.50;;;3.08;;
66542;SDS011;53395;37.360;-122.046;2023-06-22T08:52:02;12.82;;;3.65;;
66542;SDS011;53395;37.360;-122.046;2023-06-22T08:54:46;8.80;;;2.90;;
66542;SDS011;53395;37.360;-122.046;2023-06-22T08:57:31;13.02;;;2.92;;
66542;SDS011;53395;37.360;-122.046;2023-06-22T09:00:16;9.90;;;2.83;;
66542;SDS011;53395;37.360;-122.046;2023-06-22T09:03:02;10.43;;;3.22;;
66542;SDS011;53395;37.360;-122.046;2023-06-22T09:05:46;8.73;;;2.80;;
66542;SDS011;53395;37.360;-122.046;2023-06-22T09:08:31;11.35;;;3.42;;
66542;SDS011;53395;37.360;-122.046;2023-06-22T09:11:16;11.05;;;2.63;;
66542;SDS011;53395;37.360;-122.046;2023-06-22T09:14:00;13.05;;;3.40;;
66542;SDS011;53395;37.360;-122.046;2023-06-22T09:16:45;16.05;;;3.45;;
66542;SDS011;53395;37.360;-122.046;2023-06-22T09:19:29;8.63;;;2.80;;
66542;SDS011;53395;37.360;-122.046;2023-06-22T09:22:14;9.95;;;2.92;;
66542;SDS011;53395;37.360;-122.046;2023-06-22T09:24:58;14.25;;;3.17;;
66542;SDS011;53395;37.360;-122.046;2023-06-22T09:27:43;8.98;;;3.42;;
66542;SDS011;53395;37.360;-122.046;2023-06-22T09:30:28;14.25;;;3.22;;
66542;SDS011;53395;37.360;-122.046;2023-06-22T09:33:12;10.25;;;2.90;;
66542;SDS011;53395;37.360;-122.046;2023-06-22T09:35:57;14.90;;;3.85;;
66542;SDS011;53395;37.360;-122.046;2023-06-22T09:38:41;7.75;;;2.63;;
66542;SDS011;53395;37.360;-122.046;2023-06-22T09:41:26;12.48;;;3.20;;
66542;SDS011;53395;37.360;-122.046;2023-06-22T09:44:10;11.20;;;2.72;;
66542;SDS011;53395;37.360;-122.046;2023-06-22T09:46:55;8.43;;;2.70;;
66542;SDS011;53395;37.360;-122.046;2023-06-22T09:49:39;11.50;;;2.72;;
66542;SDS011;53395;37.360;-122.046;2023-06-22T09:52:23;12.32;;;2.92;;
66542;SDS011;53395;37.360;-122.046;2023-06-22T09:55:08;11.38;;;3.35;;
66542;SDS011;53395;37.360;-122.046;2023-06-22T09:57:52;13.27;;;3.20;;
66542;SDS011;53395;37.360;-122.046;2023-06-22T10:00:38;11.93;;;3.08;;
66542;SDS011;53395;37.360;-122.046;2023-06-22T10:03:25;14.27;;;3.70;;
66542;SDS011;53395;37.360;-122.046;2023-06-22T10:06:09;12.50;;;3.38;;
66542;SDS011;53395;37.360;-122.046;2023-06-22T10:08:54;10.40;;;2.90;;
66542;SDS011;53395;37.360;-122.046;2023-06-22T10:11:38;10.07;;;3.33;;
66542;SDS011;53395;37.360;-122.046;2023-06-22T10:14:23;9.68;;;2.47;;
66542;SDS011;53395;37.360;-122.046;2023-06-22T10:17:08;13.30;;;3.17;;
66542;SDS011;53395;37.360;-122.046;2023-06-22T10:19:53;9.88;;;3.30;;
66542;SDS011;53395;37.360;-122.046;2023-06-22T10:22:38;9.38;;;3.20;;
66542;SDS011;53395;37.360;-122.046;2023-06-22T10:25:23;12.52;;;3.42;;
66542;SDS011;53395;37.360;-122.046;2023-06-22T10:28:07;12.10;;;3.53;;
66542;SDS011;53395;37.360;-122.046;2023-06-22T10:30:52;11.10;;;2.95;;
66542;SDS011;53395;37.360;-122.046;2023-06-22T10:33:36;10.93;;;3.05;;
66542;SDS011;53395;37.360;-122.046;2023-06-22T10:36:21;7.80;;;2.88;;
66542;SDS011;53395;37.360;-122.046;2023-06-22T10:39:05;14.90;;;3.53;;
66542;SDS011;53395;37.360;-122.046;2023-06-22T10:41:50;10.52;;;4.00;;
66542;SDS011;53395;37.360;-122.046;2023-06-22T10:44:35;16.27;;;3.22;;
66542;SDS011;53395;37.360;-122.046;2023-06-22T10:47:19;10.20;;;2.50;;
66542;SDS011;53395;37.360;-122.046;2023-06-22T10:50:04;14.13;;;3.30;;
66542;SDS011;53395;37.360;-122.046;2023-06-22T10:52:49;11.80;;;3.17;;
66542;SDS011;53395;37.360;-122.046;2023-06-22T10:55:33;16.77;;;3.75;;
66542;SDS011;53395;37.360;-122.046;2023-06-22T10:58:18;13.70;;;2.80;;
66542;SDS011;53395;37.360;-122.046;2023-06-22T11:01:03;8.48;;;3.13;;
66542;SDS011;53395;37.360;-122.046;2023-06-22T11:03:47;9.77;;;2.75;;
66542;SDS011;53395;37.360;-122.046;2023-06-22T11:06:32;9.10;;;2.60;;
66542;SDS011;53395;37.360;-122.046;2023-06-22T11:09:17;10.95;;;2.50;;
66542;SDS011;53395;37.360;-122.046;2023-06-22T11:12:05;10.73;;;2.55;;
66542;SDS011;53395;37.360;-122.046;2023-06-22T11:14:50;11.82;;;2.63;;
66542;SDS011;53395;37.360;-122.046;2023-06-22T11:17:35;10.98;;;2.40;;
66542;SDS011;53395;37.360;-122.046;2023-06-22T11:20:20;7.70;;;2.80;;
66542;SDS011;53395;37.360;-122.046;2023-06-22T11:23:05;9.85;;;2.80;;
66542;SDS011;53395;37.360;-122.046;2023-06-22T11:25:50;10.38;;;2.75;;
66542;SDS011;53395;37.360;-122.046;2023-06-22T11:28:35;9.30;;;2.72;;
66542;SDS011;53395;37.360;-122.046;2023-06-22T11:31:19;9.43;;;2.65;;
66542;SDS011;53395;37.360;-122.046;2023-06-22T11:34:03;9.98;;;2.50;;
66542;SDS011;53395;37.360;-122.046;2023-06-22T11:36:48;10.77;;;2.80;;
66542;SDS011;53395;37.360;-122.046;2023-06-22T11:39:32;11.50;;;3.15;;
66542;SDS011;53395;37.360;-122.046;2023-06-22T11:42:17;11.70;;;2.80;;
66542;SDS011;53395;37.360;-122.046;2023-06-22T11:45:02;11.60;;;3.03;;
66542;SDS011;53395;37.360;-122.046;2023-06-22T11:47:46;12.70;;;3.13;;
66542;SDS011;53395;37.360;-122.046;2023-06-22T11:50:31;13.25;;;3.13;;
66542;SDS011;53395;37.360;-122.046;2023-06-22T11:53:20;10.15;;;2.90;;
66542;SDS011;53395;37.360;-122.046;2023-06-22T11:56:05;10.82;;;3.25;;
66542;SDS011;53395;37.360;-122.046;2023-06-22T11:58:49;11.80;;;3.00;;
66542;SDS011;53395;37.360;-122.046;2023-06-22T12:01:34;8.82;;;2.60;;
66542;SDS011;53395;37.360;-122.046;2023-06-22T12:04:18;13.93;;;3.10;;
66542;SDS011;53395;37.360;-122.046;2023-06-22T12:07:03;11.23;;;2.67;;
66542;SDS011;53395;37.360;-122.046;2023-06-22T12:09:47;13.38;;;2.70;;
66542;SDS011;53395;37.360;-122.046;2023-06-22T12:12:31;11.60;;;3.20;;
66542;SDS011;53395;37.360;-122.046;2023-06-22T12:15:16;9.93;;;2.92;;
66542;SDS011;53395;37.360;-122.046;2023-06-22T12:18:00;8.45;;;2.67;;
66542;SDS011;53395;37.360;-122.046;2023-06-22T12:20:45;9.38;;;3.08;;
66542;SDS011;53395;37.360;-122.046;2023-06-22T12:23:29;6.95;;;2.63;;
66542;SDS011;53395;37.360;-122.046;2023-06-22T12:26:14;7.80;;;2.65;;
66542;SDS011;53395;37.360;-122.046;2023-06-22T12:28:58;12.05;;;2.67;;
66542;SDS011;53395;37.360;-122.046;2023-06-22T12:31:43;10.02;;;2.50;;
66542;SDS011;53395;37.360;-122.046;2023-06-22T12:34:27;9.40;;;2.35;;
66542;SDS011;53395;37.360;-122.046;2023-06-22T12:37:12;9.55;;;2.67;;
66542;SDS011;53395;37.360;-122.046;2023-06-22T12:39:56;11.38;;;3.40;;
66542;SDS011;53395;37.360;-122.046;2023-06-22T12:42:41;9.70;;;2.92;;
66542;SDS011;53395;37.360;-122.046;2023-06-22T12:48:12;10.32;;;2.75;;
66542;SDS011;53395;37.360;-122.046;2023-06-22T12:50:57;7.65;;;2.70;;
66542;SDS011;53395;37.360;-122.046;2023-06-22T12:53:42;9.80;;;2.60;;
66542;SDS011;53395;37.360;-122.046;2023-06-22T12:56:27;8.50;;;3.03;;
66542;SDS011;53395;37.360;-122.046;2023-06-22T12:59:12;12.30;;;2.85;;
66542;SDS011;53395;37.360;-122.046;2023-06-22T13:01:56;10.90;;;2.50;;
66542;SDS011;53395;37.360;-122.046;2023-06-22T13:04:40;10.45;;;2.63;;
66542;SDS011;53395;37.360;-122.046;2023-06-22T13:07:26;10.40;;;3.15;;
66542;SDS011;53395;37.360;-122.046;2023-06-22T13:10:11;8.40;;;3.45;;
66542;SDS011;53395;37.360;-122.046;2023-06-22T13:12:56;10.48;;;3.22;;
66542;SDS011;53395;37.360;-122.046;2023-06-22T13:15:44;10.75;;;3.03;;
66542;SDS011;53395;37.360;-122.046;2023-06-22T13:18:28;11.65;;;3.47;;
66542;SDS011;53395;37.360;-122.046;2023-06-22T13:21:12;10.88;;;3.17;;
66542;SDS011;53395;37.360;-122.046;2023-06-22T13:26:42;9.02;;;3.13;;
66542;SDS011;53395;37.360;-122.046;2023-06-22T13:29:26;15.88;;;4.10;;
66542;SDS011;53395;37.360;-122.046;2023-06-22T13:32:11;11.48;;;3.45;;
66542;SDS011;53395;37.360;-122.046;2023-06-22T13:34:55;9.95;;;3.30;;
66542;SDS011;53395;37.360;-122.046;2023-06-22T13:37:40;8.15;;;2.00;;
66542;SDS011;53395;37.360;-122.046;2023-06-22T13:40:24;7.30;;;2.28;;
66542;SDS011;53395;37.360;-122.046;2023-06-22T13:43:09;13.10;;;2.72;;
66542;SDS011;53395;37.360;-122.046;2023-06-22T13:45:53;9.05;;;2.47;;
66542;SDS011;53395;37.360;-122.046;2023-06-22T13:48:37;8.50;;;2.22;;
66542;SDS011;53395;37.360;-122.046;2023-06-22T13:51:22;7.93;;;2.67;;
66542;SDS011;53395;37.360;-122.046;2023-06-22T13:54:06;8.27;;;2.58;;
66542;SDS011;53395;37.360;-122.046;2023-06-22T13:56:51;8.82;;;3.20;;
66542;SDS011;53395;37.360;-122.046;2023-06-22T13:59:35;12.13;;;3.30;;
66542;SDS011;53395;37.360;-122.046;2023-06-22T14:02:20;10.90;;;3.88;;
66542;SDS011;53395;37.360;-122.046;2023-06-22T14:05:04;9.20;;;2.90;;
66542;SDS011;53395;37.360;-122.046;2023-06-22T14:07:50;6.15;;;2.33;;
66542;SDS011;53395;37.360;-122.046;2023-06-22T14:10:34;6.78;;;2.30;;
66542;SDS011;53395;37.360;-122.046;2023-06-22T14:13:18;6.80;;;2.60;;
66542;SDS011;53395;37.360;-122.046;2023-06-22T14:16:03;9.63;;;2.47;;
66542;SDS011;53395;37.360;-122.046;2023-06-22T14:18:48;7.55;;;2.67;;
66542;SDS011;53395;37.360;-122.046;2023-06-22T14:21:33;11.70;;;2.78;;
66542;SDS011;53395;37.360;-122.046;2023-06-22T14:24:17;5.95;;;2.40;;
66542;SDS011;53395;37.360;-122.046;2023-06-22T14:27:01;9.27;;;2.20;;
66542;SDS011;53395;37.360;-122.046;2023-06-22T14:32:31;4.28;;;1.73;;
66542;SDS011;53395;37.360;-122.046;2023-06-22T14:35:15;5.00;;;1.83;;
66542;SDS011;53395;37.360;-122.046;2023-06-22T14:38:00;7.50;;;2.00;;
66542;SDS011;53395;37.360;-122.046;2023-06-22T14:40:44;7.07;;;2.10;;
66542;SDS011;53395;37.360;-122.046;2023-06-22T14:43:29;5.05;;;1.40;;
66542;SDS011;53395;37.360;-122.046;2023-06-22T14:46:19;5.07;;;1.33;;
66542;SDS011;53395;37.360;-122.046;2023-06-22T14:49:04;5.90;;;1.65;;
66542;SDS011;53395;37.360;-122.046;2023-06-22T14:51:48;5.07;;;1.30;;
66542;SDS011;53395;37.360;-122.046;2023-06-22T14:54:33;5.50;;;1.55;;
66542;SDS011;53395;37.360;-122.046;2023-06-22T14:57:18;5.47;;;1.95;;
66542;SDS011;53395;37.360;-122.046;2023-06-22T15:00:04;4.20;;;1.40;;
66542;SDS011;53395;37.360;-122.046;2023-06-22T15:02:50;4.85;;;1.30;;
66542;SDS011;53395;37.360;-122.046;2023-06-22T15:05:35;4.07;;;1.42;;
66542;SDS011;53395;37.360;-122.046;2023-06-22T15:08:20;5.53;;;1.23;;
66542;SDS011;53395;37.360;-122.046;2023-06-22T15:11:04;5.28;;;1.20;;
66542;SDS011;53395;37.360;-122.046;2023-06-22T15:13:49;3.28;;;1.25;;
66542;SDS011;53395;37.360;-122.046;2023-06-22T15:16:33;5.05;;;1.40;;
66542;SDS011;53395;37.360;-122.046;2023-06-22T15:19:18;5.15;;;1.80;;
66542;SDS011;53395;37.360;-122.046;2023-06-22T15:22:03;4.15;;;1.55;;
66542;SDS011;53395;37.360;-122.046;2023-06-22T15:24:48;3.88;;;1.77;;
66542;SDS011;53395;37.360;-122.046;2023-06-22T15:27:33;6.60;;;2.15;;
66542;SDS011;53395;37.360;-122.046;2023-06-22T15:30:17;4.63;;;1.35;;
66542;SDS011;53395;37.360;-122.046;2023-06-22T15:33:02;4.57;;;1.50;;
66542;SDS011;53395;37.360;-122.046;2023-06-22T15:35:46;3.70;;;1.60;;
66542;SDS011;53395;37.360;-122.046;2023-06-22T15:38:31;3.33;;;1.35;;
66542;SDS011;53395;37.360;-122.046;2023-06-22T15:41:16;5.10;;;1.80;;
66542;SDS011;53395;37.360;-122.046;2023-06-22T15:44:00;5.78;;;1.48;;
66542;SDS011;53395;37.360;-122.046;2023-06-22T15:46:45;4.15;;;1.25;;
66542;SDS011;53395;37.360;-122.046;2023-06-22T15:49:29;4.88;;;1.52;;
66542;SDS011;53395;37.360;-122.046;2023-06-22T15:52:14;3.75;;;1.52;;
66542;SDS011;53395;37.360;-122.046;2023-06-22T15:55:02;5.68;;;1.48;;
66542;SDS011;53395;37.360;-122.046;2023-06-22T15:57:47;4.78;;;1.33;;
66542;SDS011;53395;37.360;-122.046;2023-06-22T16:00:32;6.78;;;1.30;;
66542;SDS011;53395;37.360;-122.046;2023-06-22T16:03:17;5.32;;;1.70;;